sensor_id;sensor_type;location;lat;lon;timestamp;temperature;humidity
9939;DHT22;5008;50.656;7.188;2024-03-29T05:01:14;11.30;99.90
9939;DHT22;5008;50.656;7.188;2024-03-29T05:03:41;11.30;99.90
9939;DHT22;5008;50.656;7.188;2024-03-29T05:06:08;11.30;99.90
9939;DHT22;5008;50.656;7.188;2024-03-29T05:08:34;11.50;99.90
9939;DHT22;5008;50.656;7.188;2024-03-29T05:11:02;11.40;99.90
9939;DHT22;5008;50.656;7.188;2024-03-29T05:13:29;11.40;99.90
9939;DHT22;5008;50.656;7.188;2024-03-29T05:15:57;11.20;99.90
9939;DHT22;5008;50.656;7.188;2024-03-29T05:18:25;11.20;99.90
9939;DHT22;5008;50.656;7.188;2024-03-29T05:20:52;11.40;99.90
9939;DHT22;5008;50.656;7.188;2024-03-29T05:23:24;11.30;99.90
9939;DHT22;5008;50.656;7.188;2024-03-29T05:25:51;11.20;99.90
9939;DHT22;5008;50.656;7.188;2024-03-29T05:28:17;11.20;99.90
9939;DHT22;5008;50.656;7.188;2024-03-29T05:30:44;11.20;99.90
9939;DHT22;5008;50.656;7.188;2024-03-29T05:33:11;11.30;99.90
9939;DHT22;5008;50.656;7.188;2024-03-29T05:35:39;11.30;99.90
9939;DHT22;5008;50.656;7.188;2024-03-29T05:38:06;11.30;99.90
9939;DHT22;5008;50.656;7.188;2024-03-29T05:40:33;11.30;99.90
9939;DHT22;5008;50.656;7.188;2024-03-29T05:43:00;11.20;99.90
9939;DHT22;5008;50.656;7.188;2024-03-29T05:45:28;11.20;99.90
9939;DHT22;5008;50.656;7.188;2024-03-29T05:47:58;11.30;99.90
9939;DHT22;5008;50.656;7.188;2024-03-29T05:50:26;11.20;99.90
9939;DHT22;5008;50.656;7.188;2024-03-29T05:52:54;11.20;99.90
9939;DHT22;5008;50.656;7.188;2024-03-29T05:55:21;11.20;99.90
9939;DHT22;5008;50.656;7.188;2024-03-29T05:57:48;11.20;99.90
9939;DHT22;5008;50.656;7.188;2024-03-29T06:00:22;11.30;99.90
9939;DHT22;5008;50.656;7.188;2024-03-29T06:02:49;11.90;99.90
9939;DHT22;5008;50.656;7.188;2024-03-29T06:05:16;11.80;99.90
9939;DHT22;5008;50.656;7.188;2024-03-29T06:07:43;11.50;99.90
9939;DHT22;5008;50.656;7.188;2024-03-29T06:10:12;11.50;99.90
9939;DHT22;5008;50.656;7.188;2024-03-29T06:12:40;11.60;99.90
9939;DHT22;5008;50.656;7.188;2024-03-29T06:15:07;11.70;99.90
9939;DHT22;5008;50.656;7.188;2024-03-29T06:17:53;11.30;99.90
9939;DHT22;5008;50.656;7.188;2024-03-29T06:20:19;11.00;99.90
9939;DHT22;5008;50.656;7.188;2024-03-29T06:22:46;10.90;99.90
9939;DHT22;5008;50.656;7.188;2024-03-29T06:25:14;11.00;99.90
9939;DHT22;5008;50.656;7.188;2024-03-29T06:27:41;10.90;99.90
9939;DHT22;5008;50.656;7.188;2024-03-29T06:30:14;10.70;99.90
9939;DHT22;5008;50.656;7.188;2024-03-29T06:32:41;10.60;99.90
9939;DHT22;5008;50.656;7.188;2024-03-29T06:35:09;10.60;99.90
9939;DHT22;5008;50.656;7.188;2024-03-29T06:37:35;10.50;99.90
9939;DHT22;5008;50.656;7.188;2024-03-29T06:40:02;10.50;99.90
9939;DHT22;5008;50.656;7.188;2024-03-29T06:42:31;10.50;99.90
9939;DHT22;5008;50.656;7.188;2024-03-29T06:44:58;10.60;99.90
9939;DHT22;5008;50.656;7.188;2024-03-29T06:47:28;10.60;99.90
9939;DHT22;5008;50.656;7.188;2024-03-29T06:49:57;10.60;99.90
9939;DHT22;5008;50.656;7.188;2024-03-29T06:52:23;10.60;99.90
9939;DHT22;5008;50.656;7.188;2024-03-29T06:54:50;10.70;99.90
9939;DHT22;5008;50.656;7.188;2024-03-29T06:57:17;10.70;99.90
9939;DHT22;5008;50.656;7.188;2024-03-29T06:59:53;10.80;99.90
9939;DHT22;5008;50.656;7.188;2024-03-29T07:02:19;10.80;99.90
9939;DHT22;5008;50.656;7.188;2024-03-29T07:04:46;10.80;99.90
9939;DHT22;5008;50.656;7.188;2024-03-29T07:07:13;10.90;99.90
9939;DHT22;5008;50.656;7.188;2024-03-29T07:09:40;10.90;99.90
9939;DHT22;5008;50.656;7.188;2024-03-29T07:12:09;11.00;99.90
9939;DHT22;5008;50.656;7.188;2024-03-29T07:14:35;11.00;99.90
9939;DHT22;5008;50.656;7.188;2024-03-29T07:17:04;11.10;99.90
9939;DHT22;5008;50.656;7.188;2024-03-29T07:19:31;11.10;99.90
9939;DHT22;5008;50.656;7.188;2024-03-29T07:21:58;11.20;99.90
9939;DHT22;5008;50.656;7.188;2024-03-29T07:24:25;11.20;99.90
9939;DHT22;5008;50.656;7.188;2024-03-29T07:26:52;11.30;99.90
9939;DHT22;5008;50.656;7.188;2024-03-29T07:29:19;11.30;99.90
9939;DHT22;5008;50.656;7.188;2024-03-29T07:31:47;11.40;99.90
9939;DHT22;5008;50.656;7.188;2024-03-29T07:34:15;11.30;99.90
9939;DHT22;5008;50.656;7.188;2024-03-29T07:36:42;11.30;99.90
9939;DHT22;5008;50.656;7.188;2024-03-29T07:39:09;11.40;99.90
9939;DHT22;5008;50.656;7.188;2024-03-29T07:41:36;11.40;99.90
9939;DHT22;5008;50.656;7.188;2024-03-29T07:44:06;11.50;99.90
9939;DHT22;5008;50.656;7.188;2024-03-29T07:46:35;11.50;99.90
9939;DHT22;5008;50.656;7.188;2024-03-29T07:49:03;11.50;99.90
9939;DHT22;5008;50.656;7.188;2024-03-29T07:51:31;11.50;99.90
9939;DHT22;5008;50.656;7.188;2024-03-29T07:53:58;11.70;99.90
9939;DHT22;5008;50.656;7.188;2024-03-29T07:56:25;11.60;99.90
9939;DHT22;5008;50.656;7.188;2024-03-29T07:58:52;11.70;99.90
9939;DHT22;5008;50.656;7.188;2024-03-29T08:01:20;11.70;99.90
9939;DHT22;5008;50.656;7.188;2024-03-29T08:03:47;11.70;99.90
9939;DHT22;5008;50.656;7.188;2024-03-29T08:06:18;11.90;99.90
9939;DHT22;5008;50.656;7.188;2024-03-29T08:08:46;11.90;99.90
9939;DHT22;5008;50.656;7.188;2024-03-29T08:11:13;12.00;99.90
9939;DHT22;5008;50.656;7.188;2024-03-29T08:13:40;12.10;99.90
9939;DHT22;5008;50.656;7.188;2024-03-29T08:16:08;12.10;99.90
9939;DHT22;5008;50.656;7.188;2024-03-29T08:18:36;12.10;99.90
9939;DHT22;5008;50.656;7.188;2024-03-29T08:21:03;12.10;99.90
9939;DHT22;5008;50.656;7.188;2024-03-29T08:23:36;12.20;99.90
9939;DHT22;5008;50.656;7.188;2024-03-29T08:26:05;12.20;99.90
9939;DHT22;5008;50.656;7.188;2024-03-29T08:28:32;12.20;99.90
9939;DHT22;5008;50.656;7.188;2024-03-29T08:31:02;12.20;99.90
9939;DHT22;5008;50.656;7.188;2024-03-29T08:33:30;12.20;99.90
9939;DHT22;5008;50.656;7.188;2024-03-29T08:35:57;12.10;99.90
9939;DHT22;5008;50.656;7.188;2024-03-29T08:38:24;12.10;99.90
9939;DHT22;5008;50.656;7.188;2024-03-29T08:40:50;12.10;99.90
9939;DHT22;5008;50.656;7.188;2024-03-29T08:43:19;12.20;99.90
9939;DHT22;5008;50.656;7.188;2024-03-29T08:45:51;12.20;99.90
9939;DHT22;5008;50.656;7.188;2024-03-29T08:48:18;12.20;99.90
9939;DHT22;5008;50.656;7.188;2024-03-29T08:50:44;12.20;99.90
9939;DHT22;5008;50.656;7.188;2024-03-29T08:53:11;12.30;99.90
9939;DHT22;5008;50.656;7.188;2024-03-29T08:55:38;12.30;99.90
9939;DHT22;5008;50.656;7.188;2024-03-29T08:58:06;12.50;99.90
9939;DHT22;5008;50.656;7.188;2024-03-29T09:00:34;12.70;99.90
9939;DHT22;5008;50.656;7.188;2024-03-29T09:03:01;12.80;99.90
9939;DHT22;5008;50.656;7.188;2024-03-29T09:05:28;12.80;99.90
9939;DHT22;5008;50.656;7.188;2024-03-29T09:07:56;12.80;99.90
9939;DHT22;5008;50.656;7.188;2024-03-29T09:10:23;12.70;99.90
9939;DHT22;5008;50.656;7.188;2024-03-29T09:12:52;12.70;99.90
9939;DHT22;5008;50.656;7.188;2024-03-29T09:15:19;12.80;99.90
9939;DHT22;5008;50.656;7.188;2024-03-29T09:17:47;12.80;99.90
9939;DHT22;5008;50.656;7.188;2024-03-29T09:20:14;12.90;99.90
9939;DHT22;5008;50.656;7.188;2024-03-29T09:22:41;12.80;99.90
9939;DHT22;5008;50.656;7.188;2024-03-29T09:25:08;12.70;99.90
9939;DHT22;5008;50.656;7.188;2024-03-29T09:27:39;12.60;99.90
9939;DHT22;5008;50.656;7.188;2024-03-29T09:30:09;12.50;99.90
9939;DHT22;5008;50.656;7.188;2024-03-29T09:32:36;12.40;99.90
9939;DHT22;5008;50.656;7.188;2024-03-29T09:35:05;12.50;99.90
9939;DHT22;5008;50.656;7.188;2024-03-29T09:37:32;12.60;99.90
9939;DHT22;5008;50.656;7.188;2024-03-29T09:40:02;12.70;99.90
9939;DHT22;5008;50.656;7.188;2024-03-29T09:42:32;12.90;99.90
9939;DHT22;5008;50.656;7.188;2024-03-29T09:45:02;12.80;99.90
9939;DHT22;5008;50.656;7.188;2024-03-29T09:47:30;12.70;99.90
9939;DHT22;5008;50.656;7.188;2024-03-29T09:49:59;12.70;99.90
9939;DHT22;5008;50.656;7.188;2024-03-29T09:52:28;12.60;99.90
9939;DHT22;5008;50.656;7.188;2024-03-29T09:54:55;12.70;99.90
9939;DHT22;5008;50.656;7.188;2024-03-29T09:57:23;13.00;99.90
9939;DHT22;5008;50.656;7.188;2024-03-29T09:59:55;12.80;99.90
9939;DHT22;5008;50.656;7.188;2024-03-29T10:02:25;12.80;99.90
9939;DHT22;5008;50.656;7.188;2024-03-29T10:04:55;12.70;99.90
9939;DHT22;5008;50.656;7.188;2024-03-29T10:07:23;12.90;99.90
9939;DHT22;5008;50.656;7.188;2024-03-29T10:09:53;13.00;99.90
9939;DHT22;5008;50.656;7.188;2024-03-29T10:12:21;13.20;99.90
9939;DHT22;5008;50.656;7.188;2024-03-29T10:14:48;13.20;99.90
9939;DHT22;5008;50.656;7.188;2024-03-29T10:17:18;13.20;99.90
9939;DHT22;5008;50.656;7.188;2024-03-29T10:19:45;13.20;99.90
9939;DHT22;5008;50.656;7.188;2024-03-29T10:22:12;13.20;99.90
9939;DHT22;5008;50.656;7.188;2024-03-29T10:24:39;13.10;99.90
9939;DHT22;5008;50.656;7.188;2024-03-29T10:27:07;13.00;99.90
9939;DHT22;5008;50.656;7.188;2024-03-29T10:29:33;13.00;99.90
9939;DHT22;5008;50.656;7.188;2024-03-29T10:32:00;13.00;99.90
9939;DHT22;5008;50.656;7.188;2024-03-29T10:34:29;13.20;99.90
9939;DHT22;5008;50.656;7.188;2024-03-29T10:37:00;13.20;99.90
9939;DHT22;5008;50.656;7.188;2024-03-29T10:39:29;13.20;99.90
9939;DHT22;5008;50.656;7.188;2024-03-29T10:41:56;13.30;99.90
9939;DHT22;5008;50.656;7.188;2024-03-29T10:44:25;13.30;99.90
9939;DHT22;5008;50.656;7.188;2024-03-29T10:46:53;13.20;99.90
9939;DHT22;5008;50.656;7.188;2024-03-29T10:49:22;13.30;99.90
9939;DHT22;5008;50.656;7.188;2024-03-29T10:51:50;13.20;99.90
9939;DHT22;5008;50.656;7.188;2024-03-29T10:54:19;13.20;99.90
9939;DHT22;5008;50.656;7.188;2024-03-29T10:56:47;13.20;99.90
9939;DHT22;5008;50.656;7.188;2024-03-29T10:59:29;13.20;99.90
9939;DHT22;5008;50.656;7.188;2024-03-29T11:02:00;13.20;99.90
9939;DHT22;5008;50.656;7.188;2024-03-29T11:04:34;13.30;99.90
9939;DHT22;5008;50.656;7.188;2024-03-29T11:07:06;13.40;99.90
9939;DHT22;5008;50.656;7.188;2024-03-29T11:09:37;13.40;99.90
9939;DHT22;5008;50.656;7.188;2024-03-29T11:12:05;13.40;99.90
9939;DHT22;5008;50.656;7.188;2024-03-29T11:14:42;13.50;99.90
9939;DHT22;5008;50.656;7.188;2024-03-29T11:17:09;13.50;99.90
9939;DHT22;5008;50.656;7.188;2024-03-29T11:19:38;13.50;99.90
9939;DHT22;5008;50.656;7.188;2024-03-29T11:22:05;13.50;99.90
9939;DHT22;5008;50.656;7.188;2024-03-29T11:24:33;13.50;99.90
9939;DHT22;5008;50.656;7.188;2024-03-29T11:27:07;13.60;99.90
9939;DHT22;5008;50.656;7.188;2024-03-29T11:29:34;13.60;99.90
9939;DHT22;5008;50.656;7.188;2024-03-29T11:32:07;13.70;99.90
9939;DHT22;5008;50.656;7.188;2024-03-29T11:34:34;13.70;99.90
9939;DHT22;5008;50.656;7.188;2024-03-29T11:37:07;13.70;99.90
9939;DHT22;5008;50.656;7.188;2024-03-29T11:39:34;13.60;99.90
9939;DHT22;5008;50.656;7.188;2024-03-29T11:42:01;13.60;99.90
9939;DHT22;5008;50.656;7.188;2024-03-29T11:44:28;13.50;99.90
9939;DHT22;5008;50.656;7.188;2024-03-29T11:46:57;13.60;99.90
9939;DHT22;5008;50.656;7.188;2024-03-29T11:49:26;13.60;99.90
9939;DHT22;5008;50.656;7.188;2024-03-29T11:52:02;13.50;99.90
9939;DHT22;5008;50.656;7.188;2024-03-29T11:54:36;13.40;99.90
9939;DHT22;5008;50.656;7.188;2024-03-29T11:57:03;13.50;99.90
9939;DHT22;5008;50.656;7.188;2024-03-29T11:59:30;13.50;99.90
9939;DHT22;5008;50.656;7.188;2024-03-29T12:01:57;13.50;99.90
9939;DHT22;5008;50.656;7.188;2024-03-29T12:04:25;13.50;99.90
9939;DHT22;5008;50.656;7.188;2024-03-29T12:06:53;13.50;99.90
9939;DHT22;5008;50.656;7.188;2024-03-29T12:09:20;13.50;99.90
9939;DHT22;5008;50.656;7.188;2024-03-29T12:11:48;13.60;99.90
9939;DHT22;5008;50.656;7.188;2024-03-29T12:14:16;13.60;99.90
9939;DHT22;5008;50.656;7.188;2024-03-29T12:16:43;13.70;99.90
9939;DHT22;5008;50.656;7.188;2024-03-29T12:19:21;13.80;99.90
9939;DHT22;5008;50.656;7.188;2024-03-29T12:21:50;13.80;99.90
9939;DHT22;5008;50.656;7.188;2024-03-29T12:24:17;13.80;99.90
9939;DHT22;5008;50.656;7.188;2024-03-29T12:26:44;13.80;99.90
9939;DHT22;5008;50.656;7.188;2024-03-29T12:29:11;13.70;99.90
9939;DHT22;5008;50.656;7.188;2024-03-29T12:31:37;13.60;99.90
9939;DHT22;5008;50.656;7.188;2024-03-29T12:34:04;13.60;99.90
9939;DHT22;5008;50.656;7.188;2024-03-29T12:36:33;13.70;99.90
9939;DHT22;5008;50.656;7.188;2024-03-29T12:39:01;13.80;99.90
9939;DHT22;5008;50.656;7.188;2024-03-29T12:41:29;13.80;99.90
9939;DHT22;5008;50.656;7.188;2024-03-29T12:43:56;13.80;99.90
9939;DHT22;5008;50.656;7.188;2024-03-29T12:46:29;14.00;99.90
9939;DHT22;5008;50.656;7.188;2024-03-29T12:48:59;13.90;99.90
9939;DHT22;5008;50.656;7.188;2024-03-29T12:51:27;13.90;99.90
9939;DHT22;5008;50.656;7.188;2024-03-29T12:53:55;13.90;99.90
9939;DHT22;5008;50.656;7.188;2024-03-29T12:56:27;13.90;99.90
9939;DHT22;5008;50.656;7.188;2024-03-29T12:58:54;13.80;99.90
9939;DHT22;5008;50.656;7.188;2024-03-29T13:01:21;13.80;99.90
9939;DHT22;5008;50.656;7.188;2024-03-29T13:03:48;13.80;99.90
9939;DHT22;5008;50.656;7.188;2024-03-29T13:06:15;13.90;99.90
9939;DHT22;5008;50.656;7.188;2024-03-29T13:08:41;13.80;99.90
9939;DHT22;5008;50.656;7.188;2024-03-29T13:11:08;13.90;99.90
9939;DHT22;5008;50.656;7.188;2024-03-29T13:13:37;14.00;99.90
9939;DHT22;5008;50.656;7.188;2024-03-29T13:16:04;14.10;99.90
9939;DHT22;5008;50.656;7.188;2024-03-29T13:18:31;14.30;99.90
9939;DHT22;5008;50.656;7.188;2024-03-29T13:21:06;14.40;99.90
9939;DHT22;5008;50.656;7.188;2024-03-29T13:23:33;14.40;99.90
9939;DHT22;5008;50.656;7.188;2024-03-29T13:26:00;14.50;99.90
9939;DHT22;5008;50.656;7.188;2024-03-29T13:28:26;14.50;99.90
9939;DHT22;5008;50.656;7.188;2024-03-29T13:30:55;14.50;99.90
9939;DHT22;5008;50.656;7.188;2024-03-29T13:33:22;14.60;99.90
9939;DHT22;5008;50.656;7.188;2024-03-29T13:35:52;14.70;99.90
9939;DHT22;5008;50.656;7.188;2024-03-29T13:38:19;14.80;99.90
9939;DHT22;5008;50.656;7.188;2024-03-29T13:40:49;14.90;99.90
9939;DHT22;5008;50.656;7.188;2024-03-29T13:43:16;14.80;99.90
9939;DHT22;5008;50.656;7.188;2024-03-29T13:45:43;14.80;99.90
9939;DHT22;5008;50.656;7.188;2024-03-29T13:48:11;14.80;99.90
9939;DHT22;5008;50.656;7.188;2024-03-29T13:50:38;14.70;99.90
9939;DHT22;5008;50.656;7.188;2024-03-29T13:53:04;14.60;99.90
9939;DHT22;5008;50.656;7.188;2024-03-29T13:55:32;14.60;99.90
9939;DHT22;5008;50.656;7.188;2024-03-29T13:57:59;14.60;99.90
9939;DHT22;5008;50.656;7.188;2024-03-29T14:00:25;14.50;99.90
9939;DHT22;5008;50.656;7.188;2024-03-29T14:02:52;14.60;99.90
9939;DHT22;5008;50.656;7.188;2024-03-29T14:05:20;14.70;99.90
9939;DHT22;5008;50.656;7.188;2024-03-29T14:07:47;14.90;99.90
9939;DHT22;5008;50.656;7.188;2024-03-29T14:10:15;14.90;99.90
9939;DHT22;5008;50.656;7.188;2024-03-29T14:12:43;14.90;99.90
9939;DHT22;5008;50.656;7.188;2024-03-29T14:15:11;14.90;99.90
9939;DHT22;5008;50.656;7.188;2024-03-29T14:17:38;15.00;99.90
9939;DHT22;5008;50.656;7.188;2024-03-29T14:20:05;15.20;99.90
9939;DHT22;5008;50.656;7.188;2024-03-29T14:22:33;15.40;99.90
9939;DHT22;5008;50.656;7.188;2024-03-29T14:25:01;15.50;99.90
9939;DHT22;5008;50.656;7.188;2024-03-29T14:27:28;15.60;99.90
9939;DHT22;5008;50.656;7.188;2024-03-29T14:29:56;15.50;99.90
9939;DHT22;5008;50.656;7.188;2024-03-29T14:32:23;15.40;99.90
9939;DHT22;5008;50.656;7.188;2024-03-29T14:34:50;15.50;99.90
9939;DHT22;5008;50.656;7.188;2024-03-29T14:37:18;15.40;99.90
9939;DHT22;5008;50.656;7.188;2024-03-29T14:39:46;15.30;99.90
9939;DHT22;5008;50.656;7.188;2024-03-29T14:42:12;15.30;99.90
9939;DHT22;5008;50.656;7.188;2024-03-29T14:44:43;15.20;99.90
9939;DHT22;5008;50.656;7.188;2024-03-29T14:47:10;15.20;99.90
9939;DHT22;5008;50.656;7.188;2024-03-29T14:49:38;15.20;99.90
9939;DHT22;5008;50.656;7.188;2024-03-29T14:52:05;15.20;99.90
9939;DHT22;5008;50.656;7.188;2024-03-29T14:54:31;15.20;99.90
9939;DHT22;5008;50.656;7.188;2024-03-29T14:56:59;15.20;99.90
9939;DHT22;5008;50.656;7.188;2024-03-29T14:59:27;15.20;99.90
9939;DHT22;5008;50.656;7.188;2024-03-29T15:01:55;15.20;99.90
9939;DHT22;5008;50.656;7.188;2024-03-29T15:04:22;15.20;99.90
9939;DHT22;5008;50.656;7.188;2024-03-29T15:06:49;15.20;99.90
9939;DHT22;5008;50.656;7.188;2024-03-29T15:09:26;15.10;99.90
9939;DHT22;5008;50.656;7.188;2024-03-29T15:11:53;15.00;99.90
9939;DHT22;5008;50.656;7.188;2024-03-29T15:14:21;14.90;99.90
9939;DHT22;5008;50.656;7.188;2024-03-29T15:16:47;14.90;99.90
9939;DHT22;5008;50.656;7.188;2024-03-29T15:19:15;14.90;99.90
9939;DHT22;5008;50.656;7.188;2024-03-29T15:21:42;14.90;99.90
9939;DHT22;5008;50.656;7.188;2024-03-29T15:24:09;14.80;99.90
9939;DHT22;5008;50.656;7.188;2024-03-29T15:26:36;14.70;99.90
9939;DHT22;5008;50.656;7.188;2024-03-29T15:29:03;14.60;99.90
9939;DHT22;5008;50.656;7.188;2024-03-29T15:31:35;14.50;99.90
9939;DHT22;5008;50.656;7.188;2024-03-29T15:34:02;14.50;99.90
9939;DHT22;5008;50.656;7.188;2024-03-29T15:36:30;14.40;99.90
9939;DHT22;5008;50.656;7.188;2024-03-29T15:38:57;14.30;99.90
9939;DHT22;5008;50.656;7.188;2024-03-29T15:41:31;14.30;99.90
9939;DHT22;5008;50.656;7.188;2024-03-29T15:43:58;14.20;99.90
9939;DHT22;5008;50.656;7.188;2024-03-29T15:46:26;14.20;99.90
9939;DHT22;5008;50.656;7.188;2024-03-29T15:48:54;14.20;99.90
9939;DHT22;5008;50.656;7.188;2024-03-29T15:51:21;14.10;99.90
9939;DHT22;5008;50.656;7.188;2024-03-29T15:54:05;14.10;99.90
9939;DHT22;5008;50.656;7.188;2024-03-29T15:56:36;14.00;99.90
9939;DHT22;5008;50.656;7.188;2024-03-29T15:59:03;14.10;99.90
9939;DHT22;5008;50.656;7.188;2024-03-29T16:01:30;14.00;99.90
9939;DHT22;5008;50.656;7.188;2024-03-29T16:03:58;14.00;99.90
9939;DHT22;5008;50.656;7.188;2024-03-29T16:06:25;13.90;99.90
9939;DHT22;5008;50.656;7.188;2024-03-29T16:08:52;13.80;99.90
9939;DHT22;5008;50.656;7.188;2024-03-29T16:11:18;13.70;99.90
9939;DHT22;5008;50.656;7.188;2024-03-29T16:13:45;13.60;99.90
9939;DHT22;5008;50.656;7.188;2024-03-29T16:16:12;13.70;99.90
9939;DHT22;5008;50.656;7.188;2024-03-29T16:18:38;13.60;99.90
9939;DHT22;5008;50.656;7.188;2024-03-29T16:21:06;13.50;99.90
9939;DHT22;5008;50.656;7.188;2024-03-29T16:23:32;13.50;99.90
9939;DHT22;5008;50.656;7.188;2024-03-29T16:25:59;13.50;99.90
9939;DHT22;5008;50.656;7.188;2024-03-29T16:28:25;13.50;99.90
9939;DHT22;5008;50.656;7.188;2024-03-29T16:30:53;13.40;99.90
9939;DHT22;5008;50.656;7.188;2024-03-29T16:33:19;13.40;99.90
9939;DHT22;5008;50.656;7.188;2024-03-29T16:35:46;13.30;99.90
9939;DHT22;5008;50.656;7.188;2024-03-29T16:38:26;13.20;99.90
9939;DHT22;5008;50.656;7.188;2024-03-29T16:40:53;13.30;99.90
9939;DHT22;5008;50.656;7.188;2024-03-29T16:43:19;13.20;99.90
9939;DHT22;5008;50.656;7.188;2024-03-29T16:45:46;13.10;99.90
9939;DHT22;5008;50.656;7.188;2024-03-29T16:48:12;13.10;99.90
9939;DHT22;5008;50.656;7.188;2024-03-29T16:50:39;13.00;99.90
9939;DHT22;5008;50.656;7.188;2024-03-29T16:53:05;12.90;99.90
9939;DHT22;5008;50.656;7.188;2024-03-29T16:55:34;12.80;99.90
9939;DHT22;5008;50.656;7.188;2024-03-29T16:58:02;12.80;99.90
9939;DHT22;5008;50.656;7.188;2024-03-29T17:00:29;12.80;99.90
9939;DHT22;5008;50.656;7.188;2024-03-29T17:03:06;12.80;99.90
9939;DHT22;5008;50.656;7.188;2024-03-29T17:05:34;12.70;99.90
9939;DHT22;5008;50.656;7.188;2024-03-29T17:08:00;12.60;99.90
9939;DHT22;5008;50.656;7.188;2024-03-29T17:10:27;12.60;99.90
9939;DHT22;5008;50.656;7.188;2024-03-29T17:12:54;12.50;99.90
9939;DHT22;5008;50.656;7.188;2024-03-29T17:15:21;12.50;99.90
9939;DHT22;5008;50.656;7.188;2024-03-29T17:17:46;12.40;99.90
9939;DHT22;5008;50.656;7.188;2024-03-29T17:20:14;12.40;99.90
9939;DHT22;5008;50.656;7.188;2024-03-29T17:22:40;12.40;99.90
9939;DHT22;5008;50.656;7.188;2024-03-29T17:25:07;12.30;99.90
9939;DHT22;5008;50.656;7.188;2024-03-29T17:27:37;12.30;99.90
9939;DHT22;5008;50.656;7.188;2024-03-29T17:30:06;12.40;99.90
9939;DHT22;5008;50.656;7.188;2024-03-29T17:32:33;12.30;99.90
9939;DHT22;5008;50.656;7.188;2024-03-29T17:35:01;12.30;99.90
9939;DHT22;5008;50.656;7.188;2024-03-29T17:37:27;12.30;99.90
9939;DHT22;5008;50.656;7.188;2024-03-29T17:39:54;12.20;99.90
9939;DHT22;5008;50.656;7.188;2024-03-29T17:42:20;12.10;99.90
9939;DHT22;5008;50.656;7.188;2024-03-29T17:44:48;12.10;99.90
9939;DHT22;5008;50.656;7.188;2024-03-29T17:47:15;12.10;99.90
9939;DHT22;5008;50.656;7.188;2024-03-29T17:49:42;12.10;99.90
9939;DHT22;5008;50.656;7.188;2024-03-29T17:52:08;12.00;99.90
9939;DHT22;5008;50.656;7.188;2024-03-29T17:54:35;12.00;99.90
9939;DHT22;5008;50.656;7.188;2024-03-29T17:57:01;11.90;99.90
9939;DHT22;5008;50.656;7.188;2024-03-29T17:59:28;11.90;99.90
9939;DHT22;5008;50.656;7.188;2024-03-29T18:01:54;11.90;99.90
9939;DHT22;5008;50.656;7.188;2024-03-29T18:04:22;11.90;99.90
9939;DHT22;5008;50.656;7.188;2024-03-29T18:06:48;11.90;99.90
9939;DHT22;5008;50.656;7.188;2024-03-29T18:09:15;11.90;99.90
9939;DHT22;5008;50.656;7.188;2024-03-29T18:11:42;11.90;99.90
9939;DHT22;5008;50.656;7.188;2024-03-29T18:14:09;11.90;99.90
9939;DHT22;5008;50.656;7.188;2024-03-29T18:16:34;11.80;99.90
9939;DHT22;5008;50.656;7.188;2024-03-29T18:19:02;11.90;99.90
9939;DHT22;5008;50.656;7.188;2024-03-29T18:21:31;11.80;99.90
9939;DHT22;5008;50.656;7.188;2024-03-29T18:23:57;11.80;99.90
9939;DHT22;5008;50.656;7.188;2024-03-29T18:26:23;11.80;99.90
9939;DHT22;5008;50.656;7.188;2024-03-29T18:28:50;11.70;99.90
9939;DHT22;5008;50.656;7.188;2024-03-29T18:31:16;11.60;99.90
9939;DHT22;5008;50.656;7.188;2024-03-29T18:33:43;11.60;99.90
9939;DHT22;5008;50.656;7.188;2024-03-29T18:36:11;11.60;99.90
9939;DHT22;5008;50.656;7.188;2024-03-29T18:38:40;11.60;99.90
9939;DHT22;5008;50.656;7.188;2024-03-29T18:41:06;11.60;99.90
9939;DHT22;5008;50.656;7.188;2024-03-29T18:43:35;11.60;99.90
9939;DHT22;5008;50.656;7.188;2024-03-29T18:46:05;11.60;99.90
9939;DHT22;5008;50.656;7.188;2024-03-29T18:48:32;11.60;99.90
9939;DHT22;5008;50.656;7.188;2024-03-29T18:50:59;11.60;99.90
9939;DHT22;5008;50.656;7.188;2024-03-29T18:53:38;11.60;99.90
9939;DHT22;5008;50.656;7.188;2024-03-29T18:56:07;11.60;99.90
9939;DHT22;5008;50.656;7.188;2024-03-29T18:58:34;11.50;99.90
9939;DHT22;5008;50.656;7.188;2024-03-29T19:01:29;11.50;99.90
9939;DHT22;5008;50.656;7.188;2024-03-29T19:03:58;11.50;99.90
9939;DHT22;5008;50.656;7.188;2024-03-29T19:06:24;11.50;99.90
9939;DHT22;5008;50.656;7.188;2024-03-29T19:08:52;11.50;99.90
9939;DHT22;5008;50.656;7.188;2024-03-29T19:11:19;11.50;99.90
9939;DHT22;5008;50.656;7.188;2024-03-29T19:13:49;11.50;99.90
9939;DHT22;5008;50.656;7.188;2024-03-29T19:16:15;11.50;99.90
9939;DHT22;5008;50.656;7.188;2024-03-29T19:18:42;11.50;99.90
9939;DHT22;5008;50.656;7.188;2024-03-29T19:21:08;11.50;99.90
9939;DHT22;5008;50.656;7.188;2024-03-29T19:23:35;11.50;99.90
9939;DHT22;5008;50.656;7.188;2024-03-29T19:26:01;11.50;99.90
9939;DHT22;5008;50.656;7.188;2024-03-29T19:28:30;11.50;99.90
9939;DHT22;5008;50.656;7.188;2024-03-29T19:30:56;11.50;99.90
9939;DHT22;5008;50.656;7.188;2024-03-29T19:33:23;11.40;99.90
9939;DHT22;5008;50.656;7.188;2024-03-29T19:35:49;11.40;99.90
9939;DHT22;5008;50.656;7.188;2024-03-29T19:38:16;11.40;99.90
9939;DHT22;5008;50.656;7.188;2024-03-29T19:40:45;11.30;99.90
9939;DHT22;5008;50.656;7.188;2024-03-29T19:43:12;11.30;99.90
9939;DHT22;5008;50.656;7.188;2024-03-29T19:45:39;11.40;99.90
9939;DHT22;5008;50.656;7.188;2024-03-29T19:48:07;11.30;99.90
9939;DHT22;5008;50.656;7.188;2024-03-29T19:50:40;11.40;99.90
9939;DHT22;5008;50.656;7.188;2024-03-29T19:53:07;11.40;99.90
9939;DHT22;5008;50.656;7.188;2024-03-29T19:55:33;11.40;99.90
9939;DHT22;5008;50.656;7.188;2024-03-29T19:58:00;11.40;99.90
9939;DHT22;5008;50.656;7.188;2024-03-29T20:00:26;11.30;99.90
9939;DHT22;5008;50.656;7.188;2024-03-29T20:02:54;11.40;99.90
9939;DHT22;5008;50.656;7.188;2024-03-29T20:05:20;11.40;99.90
9939;DHT22;5008;50.656;7.188;2024-03-29T20:07:47;11.30;99.90
9939;DHT22;5008;50.656;7.188;2024-03-29T20:10:13;11.30;99.90
9939;DHT22;5008;50.656;7.188;2024-03-29T20:12:41;11.30;99.90
9939;DHT22;5008;50.656;7.188;2024-03-29T20:15:07;11.30;99.90
9939;DHT22;5008;50.656;7.188;2024-03-29T20:17:34;11.30;99.90
9939;DHT22;5008;50.656;7.188;2024-03-29T20:20:01;11.30;99.90
9939;DHT22;5008;50.656;7.188;2024-03-29T20:25:18;11.40;99.90
9939;DHT22;5008;50.656;7.188;2024-03-29T20:27:45;11.30;99.90
9939;DHT22;5008;50.656;7.188;2024-03-29T20:30:12;11.30;99.90
9939;DHT22;5008;50.656;7.188;2024-03-29T20:32:39;11.30;99.90
9939;DHT22;5008;50.656;7.188;2024-03-29T20:35:07;11.20;99.90
9939;DHT22;5008;50.656;7.188;2024-03-29T20:37:34;11.20;99.90
9939;DHT22;5008;50.656;7.188;2024-03-29T20:40:00;11.20;99.90
9939;DHT22;5008;50.656;7.188;2024-03-29T20:42:26;11.30;99.90
9939;DHT22;5008;50.656;7.188;2024-03-29T20:44:52;11.20;99.90
9939;DHT22;5008;50.656;7.188;2024-03-29T20:47:19;11.20;99.90
9939;DHT22;5008;50.656;7.188;2024-03-29T20:49:48;11.20;99.90
9939;DHT22;5008;50.656;7.188;2024-03-29T20:52:16;11.20;99.90
9939;DHT22;5008;50.656;7.188;2024-03-29T20:54:43;11.20;99.90
9939;DHT22;5008;50.656;7.188;2024-03-29T20:57:10;11.20;99.90
9939;DHT22;5008;50.656;7.188;2024-03-29T20:59:39;11.20;99.90
9939;DHT22;5008;50.656;7.188;2024-03-29T21:02:06;11.20;99.90
9939;DHT22;5008;50.656;7.188;2024-03-29T21:04:50;11.20;99.90
9939;DHT22;5008;50.656;7.188;2024-03-29T21:07:36;11.20;99.90
9939;DHT22;5008;50.656;7.188;2024-03-29T21:10:09;11.20;99.90